sensor_id;sensor_type;location;lat;lon;timestamp;pressure;altitude;pressure_sealevel;temperature;humidity
30021;BME280;16861;52.294;7.760;2022-07-29T00:00:00;100014.69;;;20.34;40.27
30021;BME280;16861;52.294;7.760;2022-07-29T00:02:28;100010.44;;;20.31;40.47
30021;BME280;16861;52.294;7.760;2022-07-29T00:04:54;99998.91;;;20.31;40.22
30021;BME280;16861;52.294;7.760;2022-07-29T00:07:21;100002.72;;;20.28;40.57
30021;BME280;16861;52.294;7.760;2022-07-29T00:09:47;100001.06;;;20.27;40.65
30021;BME280;16861;52.294;7.760;2022-07-29T00:12:18;99996.66;;;20.26;40.50
30021;BME280;16861;52.294;7.760;2022-07-29T00:14:52;99995.84;;;20.26;40.89
30021;BME280;16861;52.294;7.760;2022-07-29T00:17:19;99990.50;;;20.26;40.65
30021;BME280;16861;52.294;7.760;2022-07-29T00:19:45;99990.50;;;20.26;40.47
30021;BME280;16861;52.294;7.760;2022-07-29T00:22:12;99975.44;;;20.25;40.64
30021;BME280;16861;52.294;7.760;2022-07-29T00:24:38;99976.28;;;20.25;40.77
30021;BME280;16861;52.294;7.760;2022-07-29T00:30:52;99966.44;;;20.26;40.54
30021;BME280;16861;52.294;7.760;2022-07-29T00:33:19;99971.94;;;20.24;40.80
30021;BME280;16861;52.294;7.760;2022-07-29T00:35:46;99964.06;;;20.23;40.47
30021;BME280;16861;52.294;7.760;2022-07-29T00:38:15;99965.19;;;20.20;40.85
30021;BME280;16861;52.294;7.760;2022-07-29T00:40:42;99964.34;;;20.20;41.19
30021;BME280;16861;52.294;7.760;2022-07-29T00:43:10;99961.66;;;20.20;41.21
30021;BME280;16861;52.294;7.760;2022-07-29T00:45:36;99963.50;;;20.19;40.97
30021;BME280;16861;52.294;7.760;2022-07-29T00:48:03;99958.31;;;20.17;41.48
30021;BME280;16861;52.294;7.760;2022-07-29T00:50:31;99957.44;;;20.17;41.43
30021;BME280;16861;52.294;7.760;2022-07-29T00:52:58;99958.44;;;20.16;41.49
30021;BME280;16861;52.294;7.760;2022-07-29T00:55:25;99958.72;;;20.13;41.14
30021;BME280;16861;52.294;7.760;2022-07-29T00:57:52;99954.53;;;20.10;41.39
30021;BME280;16861;52.294;7.760;2022-07-29T01:00:23;99962.00;;;20.07;41.36
30021;BME280;16861;52.294;7.760;2022-07-29T01:02:51;99956.78;;;20.05;41.39
30021;BME280;16861;52.294;7.760;2022-07-29T01:05:19;99958.75;;;20.03;41.51
30021;BME280;16861;52.294;7.760;2022-07-29T01:07:49;99952.84;;;19.99;41.90
30021;BME280;16861;52.294;7.760;2022-07-29T01:10:18;99950.28;;;19.98;41.67
30021;BME280;16861;52.294;7.760;2022-07-29T01:12:47;99950.59;;;19.95;41.73
30021;BME280;16861;52.294;7.760;2022-07-29T01:15:15;99942.72;;;19.93;42.07
30021;BME280;16861;52.294;7.760;2022-07-29T01:17:46;99939.34;;;19.91;42.67
30021;BME280;16861;52.294;7.760;2022-07-29T01:20:26;99936.00;;;19.89;42.61
30021;BME280;16861;52.294;7.760;2022-07-29T01:29:03;99933.06;;;19.82;42.10
30021;BME280;16861;52.294;7.760;2022-07-29T01:31:33;99921.50;;;19.82;42.48
30021;BME280;16861;52.294;7.760;2022-07-29T01:34:07;99923.06;;;19.84;42.09
30021;BME280;16861;52.294;7.760;2022-07-29T01:36:40;99920.53;;;19.83;42.35
30021;BME280;16861;52.294;7.760;2022-07-29T01:39:18;99925.31;;;19.79;42.61
30021;BME280;16861;52.294;7.760;2022-07-29T01:42:15;99924.91;;;19.74;42.06
30021;BME280;16861;52.294;7.760;2022-07-29T01:45:06;99925.91;;;19.73;42.44
30021;BME280;16861;52.294;7.760;2022-07-29T01:47:40;99933.06;;;19.72;42.73
30021;BME280;16861;52.294;7.760;2022-07-29T01:50:10;99917.19;;;19.71;42.90
30021;BME280;16861;52.294;7.760;2022-07-29T01:52:59;99916.78;;;19.65;42.46
30021;BME280;16861;52.294;7.760;2022-07-29T01:55:31;99912.97;;;19.68;42.86
30021;BME280;16861;52.294;7.760;2022-07-29T01:58:00;99914.78;;;19.67;42.84
30021;BME280;16861;52.294;7.760;2022-07-29T02:00:30;99917.47;;;19.67;42.86
30021;BME280;16861;52.294;7.760;2022-07-29T02:03:00;99913.25;;;19.65;42.68
30021;BME280;16861;52.294;7.760;2022-07-29T02:05:30;99913.25;;;19.65;42.89
30021;BME280;16861;52.294;7.760;2022-07-29T02:07:58;99910.72;;;19.63;42.86
30021;BME280;16861;52.294;7.760;2022-07-29T02:10:27;99902.16;;;19.60;42.91
30021;BME280;16861;52.294;7.760;2022-07-29T02:12:56;99903.16;;;19.59;43.26
30021;BME280;16861;52.294;7.760;2022-07-29T02:15:28;99902.44;;;19.57;43.57
30021;BME280;16861;52.294;7.760;2022-07-29T02:18:07;99903.69;;;19.52;43.21
30021;BME280;16861;52.294;7.760;2022-07-29T02:20:36;99895.56;;;19.54;42.87
30021;BME280;16861;52.294;7.760;2022-07-29T02:23:04;99893.88;;;19.53;42.71
30021;BME280;16861;52.294;7.760;2022-07-29T02:25:33;99890.53;;;19.51;43.09
30021;BME280;16861;52.294;7.760;2022-07-29T02:28:05;99899.63;;;19.48;43.30
30021;BME280;16861;52.294;7.760;2022-07-29T02:30:34;99894.47;;;19.47;43.21
30021;BME280;16861;52.294;7.760;2022-07-29T02:33:03;99893.75;;;19.45;43.17
30021;BME280;16861;52.294;7.760;2022-07-29T02:35:31;99888.53;;;19.43;43.19
30021;BME280;16861;52.294;7.760;2022-07-29T02:38:01;99889.66;;;19.40;43.34
30021;BME280;16861;52.294;7.760;2022-07-29T02:40:48;99889.94;;;19.37;43.37
30021;BME280;16861;52.294;7.760;2022-07-29T02:43:17;99896.41;;;19.35;43.35
30021;BME280;16861;52.294;7.760;2022-07-29T02:45:47;99888.00;;;19.30;43.68
30021;BME280;16861;52.294;7.760;2022-07-29T02:48:19;99885.47;;;19.28;43.90
30021;BME280;16861;52.294;7.760;2022-07-29T02:50:55;99891.09;;;19.25;43.97
30021;BME280;16861;52.294;7.760;2022-07-29T02:53:26;99883.09;;;19.25;43.56
30021;BME280;16861;52.294;7.760;2022-07-29T02:56:06;99888.00;;;19.20;43.84
30021;BME280;16861;52.294;7.760;2022-07-29T02:58:40;99885.31;;;19.20;43.81
30021;BME280;16861;52.294;7.760;2022-07-29T03:01:15;99890.97;;;19.17;44.25
30021;BME280;16861;52.294;7.760;2022-07-29T03:03:49;99886.59;;;19.16;43.85
30021;BME280;16861;52.294;7.760;2022-07-29T03:06:17;99883.22;;;19.13;43.83
30021;BME280;16861;52.294;7.760;2022-07-29T03:09:03;99886.88;;;19.12;43.63
30021;BME280;16861;52.294;7.760;2022-07-29T03:11:38;99888.00;;;19.10;43.80
30021;BME280;16861;52.294;7.760;2022-07-29T03:14:17;99883.63;;;19.09;43.90
30021;BME280;16861;52.294;7.760;2022-07-29T03:16:46;99884.75;;;19.06;43.69
30021;BME280;16861;52.294;7.760;2022-07-29T03:19:13;99882.38;;;19.03;44.17
30021;BME280;16861;52.294;7.760;2022-07-29T03:21:40;99880.78;;;19.00;43.85
30021;BME280;16861;52.294;7.760;2022-07-29T03:24:07;99882.78;;;18.98;44.12
30021;BME280;16861;52.294;7.760;2022-07-29T03:26:38;99882.91;;;18.97;44.42
30021;BME280;16861;52.294;7.760;2022-07-29T03:29:04;99872.22;;;18.97;44.32
30021;BME280;16861;52.294;7.760;2022-07-29T03:31:32;99875.75;;;18.97;44.21
30021;BME280;16861;52.294;7.760;2022-07-29T03:33:59;99877.56;;;18.97;44.50
30021;BME280;16861;52.294;7.760;2022-07-29T03:36:26;99871.41;;;18.96;44.27
30021;BME280;16861;52.294;7.760;2022-07-29T03:38:52;99875.88;;;18.96;44.29
30021;BME280;16861;52.294;7.760;2022-07-29T03:41:21;99874.47;;;18.92;44.78
30021;BME280;16861;52.294;7.760;2022-07-29T03:43:49;99875.47;;;18.91;44.96
30021;BME280;16861;52.294;7.760;2022-07-29T03:46:20;99879.25;;;18.88;45.00
30021;BME280;16861;52.294;7.760;2022-07-29T03:48:52;99872.22;;;18.87;44.76
30021;BME280;16861;52.294;7.760;2022-07-29T03:51:21;99864.22;;;18.87;44.86
30021;BME280;16861;52.294;7.760;2022-07-29T03:54:01;99864.38;;;18.85;45.03
30021;BME280;16861;52.294;7.760;2022-07-29T03:56:38;99860.31;;;18.81;44.94
30021;BME280;16861;52.294;7.760;2022-07-29T03:59:06;99860.44;;;18.80;44.99
30021;BME280;16861;52.294;7.760;2022-07-29T04:01:34;99865.06;;;18.78;44.67
30021;BME280;16861;52.294;7.760;2022-07-29T04:04:02;99870.69;;;18.74;45.03
30021;BME280;16861;52.294;7.760;2022-07-29T04:06:29;99867.28;;;18.72;44.97
30021;BME280;16861;52.294;7.760;2022-07-29T04:08:55;99874.59;;;18.70;45.17
30021;BME280;16861;52.294;7.760;2022-07-29T04:11:22;99880.06;;;18.69;45.06
30021;BME280;16861;52.294;7.760;2022-07-29T04:13:49;99875.00;;;18.66;45.24
30021;BME280;16861;52.294;7.760;2022-07-29T04:16:15;99881.47;;;18.63;45.13
30021;BME280;16861;52.294;7.760;2022-07-29T04:18:42;99879.91;;;18.60;45.02
30021;BME280;16861;52.294;7.760;2022-07-29T04:21:08;99882.72;;;18.59;45.62
30021;BME280;16861;52.294;7.760;2022-07-29T04:23:35;99880.19;;;18.57;45.30
30021;BME280;16861;52.294;7.760;2022-07-29T04:26:19;99884.81;;;18.55;45.24
30021;BME280;16861;52.294;7.760;2022-07-29T04:28:46;99878.75;;;18.53;45.67
30021;BME280;16861;52.294;7.760;2022-07-29T04:31:13;99888.56;;;18.53;45.56
30021;BME280;16861;52.294;7.760;2022-07-29T04:33:39;99878.91;;;18.52;45.51
30021;BME280;16861;52.294;7.760;2022-07-29T04:36:06;99872.75;;;18.51;45.62
30021;BME280;16861;52.294;7.760;2022-07-29T04:38:53;99871.88;;;18.51;45.48
30021;BME280;16861;52.294;7.760;2022-07-29T04:41:19;99878.06;;;18.51;46.02
30021;BME280;16861;52.294;7.760;2022-07-29T04:43:46;99881.56;;;18.52;46.07
30021;BME280;16861;52.294;7.760;2022-07-29T04:46:13;99882.41;;;18.52;45.84
30021;BME280;16861;52.294;7.760;2022-07-29T04:48:40;99883.97;;;18.55;46.18
30021;BME280;16861;52.294;7.760;2022-07-29T04:51:06;99884.81;;;18.55;46.05
30021;BME280;16861;52.294;7.760;2022-07-29T04:53:33;99880.19;;;18.57;46.00
30021;BME280;16861;52.294;7.760;2022-07-29T04:55:59;99880.19;;;18.57;46.15
30021;BME280;16861;52.294;7.760;2022-07-29T04:58:26;99872.03;;;18.59;46.13
30021;BME280;16861;52.294;7.760;2022-07-29T05:00:53;99870.94;;;18.61;46.27
30021;BME280;16861;52.294;7.760;2022-07-29T05:03:19;99873.19;;;18.66;46.36
30021;BME280;16861;52.294;7.760;2022-07-29T05:05:46;99864.91;;;18.69;46.27
30021;BME280;16861;52.294;7.760;2022-07-29T05:08:12;99864.63;;;18.72;46.28
30021;BME280;16861;52.294;7.760;2022-07-29T05:10:39;99867.03;;;18.75;45.82
30021;BME280;16861;52.294;7.760;2022-07-29T05:13:06;99865.78;;;18.80;45.93
30021;BME280;16861;52.294;7.760;2022-07-29T05:15:34;99864.53;;;18.84;46.05
30021;BME280;16861;52.294;7.760;2022-07-29T05:18:01;99876.72;;;18.86;45.92
30021;BME280;16861;52.294;7.760;2022-07-29T05:20:29;99879.09;;;18.89;45.91
30021;BME280;16861;52.294;7.760;2022-07-29T05:23:00;99876.44;;;18.89;46.52
30021;BME280;16861;52.294;7.760;2022-07-29T05:25:28;99879.53;;;18.95;46.34
30021;BME280;16861;52.294;7.760;2022-07-29T05:28:09;99886.28;;;18.99;45.91
30021;BME280;16861;52.294;7.760;2022-07-29T05:30:35;99888.66;;;19.02;46.26
30021;BME280;16861;52.294;7.760;2022-07-29T05:33:02;99884.75;;;19.06;46.32
30021;BME280;16861;52.294;7.760;2022-07-29T05:35:29;99888.84;;;19.10;46.04
30021;BME280;16861;52.294;7.760;2022-07-29T05:37:55;99892.91;;;19.14;46.25
30021;BME280;16861;52.294;7.760;2022-07-29T05:40:22;99889.84;;;19.19;46.53
30021;BME280;16861;52.294;7.760;2022-07-29T05:42:48;99884.06;;;19.24;46.25
30021;BME280;16861;52.294;7.760;2022-07-29T05:45:15;99882.78;;;19.28;45.63
30021;BME280;16861;52.294;7.760;2022-07-29T05:47:41;99890.25;;;19.34;45.79
30021;BME280;16861;52.294;7.760;2022-07-29T05:50:08;99889.94;;;19.37;45.94
30021;BME280;16861;52.294;7.760;2022-07-29T05:56:22;99899.34;;;19.51;45.80
30021;BME280;16861;52.294;7.760;2022-07-29T05:58:49;99906.94;;;19.56;45.54
30021;BME280;16861;52.294;7.760;2022-07-29T06:01:16;99904.69;;;19.61;45.85
30021;BME280;16861;52.294;7.760;2022-07-29T06:03:43;99902.28;;;19.68;45.81
30021;BME280;16861;52.294;7.760;2022-07-29T06:06:09;99896.34;;;19.74;45.80
30021;BME280;16861;52.294;7.760;2022-07-29T06:08:37;99903.81;;;19.81;45.19
30021;BME280;16861;52.294;7.760;2022-07-29T06:11:04;99909.56;;;19.86;45.33
30021;BME280;16861;52.294;7.760;2022-07-29T06:13:31;99909.13;;;19.90;45.37
30021;BME280;16861;52.294;7.760;2022-07-29T06:15:58;99905.19;;;19.95;45.07
30021;BME280;16861;52.294;7.760;2022-07-29T06:18:25;99904.78;;;19.99;45.50
30021;BME280;16861;52.294;7.760;2022-07-29T06:20:52;99912.38;;;20.04;45.22
30021;BME280;16861;52.294;7.760;2022-07-29T06:23:20;99911.09;;;20.08;45.21
30021;BME280;16861;52.294;7.760;2022-07-29T06:25:47;99905.13;;;20.14;45.13
30021;BME280;16861;52.294;7.760;2022-07-29T06:28:14;99900.19;;;20.20;45.18
30021;BME280;16861;52.294;7.760;2022-07-29T06:30:41;99906.09;;;20.23;45.31
30021;BME280;16861;52.294;7.760;2022-07-29T06:33:08;99900.31;;;20.28;45.19
30021;BME280;16861;52.294;7.760;2022-07-29T06:35:35;99907.75;;;20.34;44.99
30021;BME280;16861;52.294;7.760;2022-07-29T06:38:07;99916.97;;;20.40;45.56
30021;BME280;16861;52.294;7.760;2022-07-29T06:40:54;99918.94;;;20.48;44.87
30021;BME280;16861;52.294;7.760;2022-07-29T06:43:29;99917.47;;;20.53;44.68
30021;BME280;16861;52.294;7.760;2022-07-29T06:46:02;99919.03;;;20.56;45.18
30021;BME280;16861;52.294;7.760;2022-07-29T06:48:29;99921.41;;;20.59;44.72
30021;BME280;16861;52.294;7.760;2022-07-29T06:50:56;99929.28;;;20.61;44.46
30021;BME280;16861;52.294;7.760;2022-07-29T06:53:23;99921.97;;;20.63;44.85
30021;BME280;16861;52.294;7.760;2022-07-29T06:55:50;99923.63;;;20.64;44.83
30021;BME280;16861;52.294;7.760;2022-07-29T06:58:16;99922.63;;;20.65;45.02
30021;BME280;16861;52.294;7.760;2022-07-29T07:00:47;99923.34;;;20.67;45.22
30021;BME280;16861;52.294;7.760;2022-07-29T07:03:15;99929.38;;;20.69;44.92
30021;BME280;16861;52.294;7.760;2022-07-29T07:05:42;99928.94;;;20.74;45.03
30021;BME280;16861;52.294;7.760;2022-07-29T07:08:09;99928.63;;;20.77;45.29
30021;BME280;16861;52.294;7.760;2022-07-29T07:10:36;99932.53;;;20.82;45.00
30021;BME280;16861;52.294;7.760;2022-07-29T07:13:04;99940.00;;;20.89;45.23
30021;BME280;16861;52.294;7.760;2022-07-29T07:15:31;99935.84;;;20.94;45.07
30021;BME280;16861;52.294;7.760;2022-07-29T07:18:05;99934.97;;;21.04;44.95
30021;BME280;16861;52.294;7.760;2022-07-29T07:20:33;99933.34;;;21.11;45.29
30021;BME280;16861;52.294;7.760;2022-07-29T07:23:00;99933.44;;;21.19;45.36
30021;BME280;16861;52.294;7.760;2022-07-29T07:25:27;99929.00;;;21.28;44.96
30021;BME280;16861;52.294;7.760;2022-07-29T07:27:54;99936.13;;;21.38;45.02
30021;BME280;16861;52.294;7.760;2022-07-29T07:30:20;99939.69;;;21.46;45.30
30021;BME280;16861;52.294;7.760;2022-07-29T07:32:47;99935.41;;;21.54;44.99
30021;BME280;16861;52.294;7.760;2022-07-29T07:35:14;99931.94;;;21.61;44.89
30021;BME280;16861;52.294;7.760;2022-07-29T07:37:41;99934.84;;;21.68;44.52
30021;BME280;16861;52.294;7.760;2022-07-29T07:40:10;99941.16;;;21.77;44.57
30021;BME280;16861;52.294;7.760;2022-07-29T07:42:44;99937.69;;;21.85;44.48
30021;BME280;16861;52.294;7.760;2022-07-29T07:45:10;99925.50;;;21.91;44.57
30021;BME280;16861;52.294;7.760;2022-07-29T07:47:41;99927.53;;;21.97;44.69
30021;BME280;16861;52.294;7.760;2022-07-29T07:50:10;99928.91;;;22.01;44.24
30021;BME280;16861;52.294;7.760;2022-07-29T07:52:52;99926.91;;;22.03;44.18
30021;BME280;16861;52.294;7.760;2022-07-29T07:55:19;99930.81;;;22.09;44.18
30021;BME280;16861;52.294;7.760;2022-07-29T07:57:46;99935.81;;;22.12;44.01
30021;BME280;16861;52.294;7.760;2022-07-29T08:00:15;99924.94;;;22.13;44.46
30021;BME280;16861;52.294;7.760;2022-07-29T08:02:42;99935.22;;;22.18;44.30
30021;BME280;16861;52.294;7.760;2022-07-29T08:05:12;99933.19;;;22.20;44.16
30021;BME280;16861;52.294;7.760;2022-07-29T08:07:44;99936.22;;;22.25;44.58
30021;BME280;16861;52.294;7.760;2022-07-29T08:10:15;99934.25;;;22.28;44.15
30021;BME280;16861;52.294;7.760;2022-07-29T08:13:04;99931.91;;;22.33;44.07
30021;BME280;16861;52.294;7.760;2022-07-29T08:15:31;99927.91;;;22.37;44.09
30021;BME280;16861;52.294;7.760;2022-07-29T08:17:58;99929.44;;;22.39;43.92
30021;BME280;16861;52.294;7.760;2022-07-29T08:20:25;99932.63;;;22.43;44.03
30021;BME280;16861;52.294;7.760;2022-07-29T08:22:52;99930.63;;;22.45;43.96
30021;BME280;16861;52.294;7.760;2022-07-29T08:25:19;99934.69;;;22.49;44.40
30021;BME280;16861;52.294;7.760;2022-07-29T08:27:47;99935.19;;;22.53;44.03
30021;BME280;16861;52.294;7.760;2022-07-29T08:30:14;99931.06;;;22.59;44.52
30021;BME280;16861;52.294;7.760;2022-07-29T08:32:40;99930.38;;;22.65;44.15
30021;BME280;16861;52.294;7.760;2022-07-29T08:35:23;99934.13;;;22.72;44.07
30021;BME280;16861;52.294;7.760;2022-07-29T08:37:51;99931.47;;;22.81;44.33
30021;BME280;16861;52.294;7.760;2022-07-29T08:40:19;99929.81;;;22.88;44.22
30021;BME280;16861;52.294;7.760;2022-07-29T08:42:57;99925.13;;;22.98;44.20
30021;BME280;16861;52.294;7.760;2022-07-29T08:45:24;99932.19;;;23.08;43.80
30021;BME280;16861;52.294;7.760;2022-07-29T08:47:52;99935.03;;;23.14;43.72
30021;BME280;16861;52.294;7.760;2022-07-29T08:50:18;99929.03;;;23.21;43.77
30021;BME280;16861;52.294;7.760;2022-07-29T08:52:46;99929.19;;;23.27;43.30
30021;BME280;16861;52.294;7.760;2022-07-29T08:55:14;99925.00;;;23.33;43.36
30021;BME280;16861;52.294;7.760;2022-07-29T08:57:46;99928.72;;;23.40;43.45
30021;BME280;16861;52.294;7.760;2022-07-29T09:00:19;99926.34;;;23.46;43.42
30021;BME280;16861;52.294;7.760;2022-07-29T09:02:51;99930.56;;;23.56;43.00
30021;BME280;16861;52.294;7.760;2022-07-29T09:05:23;99927.38;;;23.61;42.94
30021;BME280;16861;52.294;7.760;2022-07-29T09:07:51;99928.03;;;23.63;42.80
30021;BME280;16861;52.294;7.760;2022-07-29T09:10:18;99929.56;;;23.66;42.88
30021;BME280;16861;52.294;7.760;2022-07-29T09:12:45;99928.38;;;23.68;42.71
30021;BME280;16861;52.294;7.760;2022-07-29T09:15:12;99925.53;;;23.70;43.14
30021;BME280;16861;52.294;7.760;2022-07-29T09:17:47;99927.22;;;23.71;43.08
30021;BME280;16861;52.294;7.760;2022-07-29T09:20:19;99924.00;;;23.76;42.93
30021;BME280;16861;52.294;7.760;2022-07-29T09:22:46;99929.53;;;23.82;42.87
30021;BME280;16861;52.294;7.760;2022-07-29T09:25:35;99924.16;;;23.82;43.04
30021;BME280;16861;52.294;7.760;2022-07-29T09:28:09;99916.06;;;23.91;43.11
30021;BME280;16861;52.294;7.760;2022-07-29T09:30:56;99923.81;;;23.94;43.21
30021;BME280;16861;52.294;7.760;2022-07-29T09:33:24;99921.94;;;24.03;42.76
30021;BME280;16861;52.294;7.760;2022-07-29T09:36:08;99920.06;;;24.03;42.63
30021;BME280;16861;52.294;7.760;2022-07-29T09:38:36;99926.50;;;24.11;42.63
30021;BME280;16861;52.294;7.760;2022-07-29T09:41:05;99910.34;;;24.11;42.65
30021;BME280;16861;52.294;7.760;2022-07-29T09:43:33;99915.41;;;24.14;42.51
30021;BME280;16861;52.294;7.760;2022-07-29T09:46:10;99917.56;;;24.10;42.46
30021;BME280;16861;52.294;7.760;2022-07-29T09:48:38;99923.47;;;24.14;42.51
30021;BME280;16861;52.294;7.760;2022-07-29T09:51:04;99922.78;;;24.12;42.17
30021;BME280;16861;52.294;7.760;2022-07-29T09:53:36;99919.41;;;24.10;42.22
30021;BME280;16861;52.294;7.760;2022-07-29T09:56:04;99925.97;;;24.07;42.29
30021;BME280;16861;52.294;7.760;2022-07-29T09:58:31;99925.47;;;24.03;42.08
30021;BME280;16861;52.294;7.760;2022-07-29T10:01:01;99929.50;;;23.99;41.84
30021;BME280;16861;52.294;7.760;2022-07-29T10:03:28;99923.81;;;23.94;41.92
30021;BME280;16861;52.294;7.760;2022-07-29T10:06:09;99933.91;;;23.84;41.79
30021;BME280;16861;52.294;7.760;2022-07-29T10:08:37;99940.97;;;23.85;41.90
30021;BME280;16861;52.294;7.760;2022-07-29T10:11:13;99941.13;;;23.75;42.30
30021;BME280;16861;52.294;7.760;2022-07-29T10:13:42;99942.97;;;23.74;42.69
30021;BME280;16861;52.294;7.760;2022-07-29T10:16:10;99947.03;;;23.70;42.94
30021;BME280;16861;52.294;7.760;2022-07-29T10:18:42;99951.06;;;23.66;43.54
30021;BME280;16861;52.294;7.760;2022-07-29T10:21:10;99946.84;;;23.63;43.86
30021;BME280;16861;52.294;7.760;2022-07-29T10:23:57;99951.56;;;23.61;44.13
30021;BME280;16861;52.294;7.760;2022-07-29T10:26:27;99945.69;;;23.58;44.08
30021;BME280;16861;52.294;7.760;2022-07-29T10:28:55;99942.47;;;23.54;44.53
30021;BME280;16861;52.294;7.760;2022-07-29T10:31:52;99935.59;;;23.43;45.88
30021;BME280;16861;52.294;7.760;2022-07-29T10:34:44;99932.56;;;23.38;46.73
30021;BME280;16861;52.294;7.760;2022-07-29T10:40:42;99931.88;;;23.27;47.58
30021;BME280;16861;52.294;7.760;2022-07-29T10:43:37;99932.53;;;23.21;47.80
30021;BME280;16861;52.294;7.760;2022-07-29T10:46:08;99941.91;;;23.17;48.09
30021;BME280;16861;52.294;7.760;2022-07-29T10:54:17;99926.78;;;22.99;49.13
30021;BME280;16861;52.294;7.760;2022-07-29T10:56:45;99921.09;;;22.94;49.43
30021;BME280;16861;52.294;7.760;2022-07-29T11:02:01;99920.41;;;22.84;48.93
30021;BME280;16861;52.294;7.760;2022-07-29T11:07:15;99907.97;;;22.74;49.87
30021;BME280;16861;52.294;7.760;2022-07-29T11:09:42;99905.78;;;22.70;49.53
30021;BME280;16861;52.294;7.760;2022-07-29T11:15:21;99904.72;;;22.62;49.87
30021;BME280;16861;52.294;7.760;2022-07-29T11:23:31;99907.59;;;22.61;50.27
30021;BME280;16861;52.294;7.760;2022-07-29T11:28:51;99907.91;;;22.58;50.66
30021;BME280;16861;52.294;7.760;2022-07-29T11:34:21;99917.31;;;22.62;50.89
30021;BME280;16861;52.294;7.760;2022-07-29T11:39:40;99918.00;;;22.72;50.83
30021;BME280;16861;52.294;7.760;2022-07-29T11:47:59;99923.41;;;22.81;50.70
30021;BME280;16861;52.294;7.760;2022-07-29T11:50:46;99917.88;;;22.82;50.40
30021;BME280;16861;52.294;7.760;2022-07-29T11:53:14;99917.72;;;22.84;50.70
30021;BME280;16861;52.294;7.760;2022-07-29T11:55:41;99916.72;;;22.85;50.97
30021;BME280;16861;52.294;7.760;2022-07-29T11:58:28;99919.06;;;22.88;50.72
30021;BME280;16861;52.294;7.760;2022-07-29T12:00:56;99920.59;;;22.90;50.80
30021;BME280;16861;52.294;7.760;2022-07-29T12:03:30;99913.72;;;22.96;50.80
30021;BME280;16861;52.294;7.760;2022-07-29T12:06:03;99918.56;;;23.01;50.77
30021;BME280;16861;52.294;7.760;2022-07-29T12:08:41;99913.75;;;23.04;50.50
30021;BME280;16861;52.294;7.760;2022-07-29T12:11:19;99913.38;;;23.08;50.60
30021;BME280;16861;52.294;7.760;2022-07-29T12:13:50;99917.09;;;23.15;50.32
30021;BME280;16861;52.294;7.760;2022-07-29T12:16:17;99910.56;;;23.17;50.21
30021;BME280;16861;52.294;7.760;2022-07-29T12:18:59;99915.75;;;23.19;50.19
30021;BME280;16861;52.294;7.760;2022-07-29T12:21:27;99919.25;;;23.20;49.45
30021;BME280;16861;52.294;7.760;2022-07-29T12:23:55;99913.41;;;23.24;49.52
30021;BME280;16861;52.294;7.760;2022-07-29T12:26:32;99918.94;;;23.23;49.56
30021;BME280;16861;52.294;7.760;2022-07-29T12:29:01;99924.47;;;23.21;49.57
30021;BME280;16861;52.294;7.760;2022-07-29T12:31:28;99923.81;;;23.19;49.41
30021;BME280;16861;52.294;7.760;2022-07-29T12:34:11;99916.59;;;23.20;49.71
30021;BME280;16861;52.294;7.760;2022-07-29T12:36:38;99911.22;;;23.20;49.66
30021;BME280;16861;52.294;7.760;2022-07-29T12:39:05;99914.75;;;23.20;50.12
30021;BME280;16861;52.294;7.760;2022-07-29T12:41:32;99915.59;;;23.21;49.46
30021;BME280;16861;52.294;7.760;2022-07-29T12:43:59;99913.91;;;23.20;50.33
30021;BME280;16861;52.294;7.760;2022-07-29T12:46:26;99923.50;;;23.22;50.60
30021;BME280;16861;52.294;7.760;2022-07-29T12:48:53;99928.88;;;23.22;51.07
30021;BME280;16861;52.294;7.760;2022-07-29T12:51:36;99927.50;;;23.18;51.11
30021;BME280;16861;52.294;7.760;2022-07-29T12:54:08;99930.53;;;23.23;51.27
30021;BME280;16861;52.294;7.760;2022-07-29T12:56:37;99928.34;;;23.27;51.24
30021;BME280;16861;52.294;7.760;2022-07-29T12:59:16;99926.50;;;23.27;50.26
30021;BME280;16861;52.294;7.760;2022-07-29T13:01:45;99915.81;;;23.36;50.88
30021;BME280;16861;52.294;7.760;2022-07-29T13:04:44;99904.38;;;23.34;50.76
30021;BME280;16861;52.294;7.760;2022-07-29T13:07:25;99908.91;;;23.41;50.98
30021;BME280;16861;52.294;7.760;2022-07-29T13:10:19;99906.41;;;23.48;50.80
30021;BME280;16861;52.294;7.760;2022-07-29T13:13:04;99900.03;;;23.49;51.38
30021;BME280;16861;52.294;7.760;2022-07-29T13:15:32;99902.53;;;23.59;51.70
30021;BME280;16861;52.294;7.760;2022-07-29T13:17:59;99900.19;;;23.64;51.30
30021;BME280;16861;52.294;7.760;2022-07-29T13:20:28;99897.81;;;23.69;51.32
30021;BME280;16861;52.294;7.760;2022-07-29T13:23:00;99903.34;;;23.76;51.04
30021;BME280;16861;52.294;7.760;2022-07-29T13:25:30;99893.59;;;23.84;51.57
30021;BME280;16861;52.294;7.760;2022-07-29T13:27:58;99890.38;;;23.88;51.35
30021;BME280;16861;52.294;7.760;2022-07-29T13:30:25;99896.91;;;23.94;50.85
30021;BME280;16861;52.294;7.760;2022-07-29T13:32:52;99885.66;;;23.99;50.20
30021;BME280;16861;52.294;7.760;2022-07-29T13:35:20;99892.53;;;24.01;50.29
30021;BME280;16861;52.294;7.760;2022-07-29T13:37:47;99893.88;;;24.05;49.88
30021;BME280;16861;52.294;7.760;2022-07-29T13:40:17;99896.19;;;24.08;49.82
30021;BME280;16861;52.294;7.760;2022-07-29T13:42:43;99888.84;;;24.11;49.76
30021;BME280;16861;52.294;7.760;2022-07-29T13:45:13;99895.03;;;24.11;49.91
30021;BME280;16861;52.294;7.760;2022-07-29T13:47:39;99899.59;;;24.11;49.81
30021;BME280;16861;52.294;7.760;2022-07-29T13:50:14;99899.59;;;24.11;50.22
30021;BME280;16861;52.294;7.760;2022-07-29T13:52:41;99900.75;;;24.08;49.54
30021;BME280;16861;52.294;7.760;2022-07-29T13:55:08;99891.19;;;24.05;49.33
30021;BME280;16861;52.294;7.760;2022-07-29T13:57:34;99898.41;;;24.05;49.74
30021;BME280;16861;52.294;7.760;2022-07-29T14:00:01;99888.84;;;24.02;49.84
30021;BME280;16861;52.294;7.760;2022-07-29T14:02:29;99894.22;;;24.02;49.30
30021;BME280;16861;52.294;7.760;2022-07-29T14:04:55;99894.22;;;24.02;50.25
30021;BME280;16861;52.294;7.760;2022-07-29T14:07:22;99895.06;;;24.03;49.88